Lincolnville, KS (66858)

4:56 AM CDT on August 29, 2015 (GMT -0500)
Marion County Lake | | Change Station
CLOSE
Current Station
Personal Weather Station
Location: Marion, KS
Elevation: 1362 ft
Nearby Weather Stations

Elev 1362 ft 38.32 °N, 96.99 °W | Updated 9 seconds ago

Partly Cloudy
Partly Cloudy
68.2 °F
Feels Like 68.2 °F
N
1.6
Wind Variable Wind from SE
Gusts 1.6 mph

Today
High -- | Low -- °F
--% Chance of Precip.
Yesterday
High -- | Low -- °F
Precip. -- in
6:54 AM 8:02 PM
Full, 100% visible
Pressure 30.03 in
Visibility 10.0 miles
Clouds Clear
Dew Point 63 °F
Humidity 83%
Rainfall 0.00 in
Snow Depth Not available.
UV 0 out of 12
Pollen 8.40 out of 12
Air Quality Not available.
Flu Activity Not available.
METAR KEWK 290955Z AUTO 33005KT 10SM CLR 18/15 A3003 RMK AO1
Pressure 30.03 in
Visibility 10.0 miles
Clouds Clear
Dew Point 63 °F
Humidity 83%
Rainfall 0.00 in
Snow Depth Not available.
UV 0 out of 12
Pollen 8.40 out of 12
Air Quality Not available.
Flu Activity Not available.
METAR KEWK 290955Z AUTO 33005KT 10SM CLR 18/15 A3003 RMK AO1

10-Day Weather Forecast

×

Almanac

Astronomy

Aug. 29, 2015 Rise Set
Actual Time
Civil Twilight
Nautical Twilight
Astronomical Twilight
Moon
Length of Visible Light
Length of Day
Tomorrow will be .
, % of the Moon is Illuminated

Today's Extremes

State Highs State Lows

Community

WunderPhotos

Upload Photos

1,850,634 photos uploaded!

WunderBlogs® & News

Nearby

Air Quality

  Air Quality AQ Index Pollutant
Not available.

Snow Depth

Station Depth Elevation

Earthquake Activity

City Distance Mag. Time & Date
Minimum magnitude displayed is 2.5.

Coastal Water Temperatures

Place Temperature

Stations

Nearby Weather Stations

Station Location Temp. Windchill Dew Point Humidity Wind Precip. Elev Updated Type